createdAt,value
2019-04-01T00:00:35.536Z,99.90
2019-04-01T00:03:07.382Z,99.90
2019-04-01T00:05:37.966Z,99.90
2019-04-01T00:08:08.434Z,99.90
2019-04-01T00:10:39.139Z,99.90
2019-04-01T00:13:09.711Z,99.90
2019-04-01T00:15:40.218Z,99.90
2019-04-01T00:18:10.757Z,99.90
2019-04-01T00:20:41.640Z,99.90
2019-04-01T00:23:12.416Z,99.90
2019-04-01T00:25:42.948Z,99.90
2019-04-01T00:28:13.345Z,99.90
2019-04-01T00:30:44.109Z,99.90
2019-04-01T00:33:14.474Z,99.90
2019-04-01T00:35:45.030Z,99.90
2019-04-01T00:38:15.542Z,99.90
2019-04-01T00:40:46.182Z,99.90
2019-04-01T00:43:34.095Z,99.90
2019-04-01T00:46:05.227Z,99.90
2019-04-01T00:48:35.745Z,99.90
2019-04-01T00:51:06.334Z,99.90
2019-04-01T00:53:36.998Z,99.90
2019-04-01T00:56:07.544Z,99.90
2019-04-01T00:58:38.105Z,99.90
2019-04-01T01:01:08.757Z,99.90
2019-04-01T01:03:40.456Z,99.90
2019-04-01T01:06:11.061Z,99.90
2019-04-01T01:08:41.534Z,99.90
2019-04-01T01:11:12.253Z,99.90
2019-04-01T01:13:42.664Z,99.90
2019-04-01T01:16:13.096Z,99.90
2019-04-01T01:18:43.547Z,99.90
2019-04-01T01:21:14.043Z,99.90
2019-04-01T01:23:44.601Z,99.90
2019-04-01T01:26:15.163Z,99.90
2019-04-01T01:28:45.716Z,99.90
2019-04-01T01:31:16.260Z,99.90
2019-04-01T01:33:46.807Z,99.90
2019-04-01T01:36:17.344Z,99.90
2019-04-01T01:38:48.111Z,99.90
2019-04-01T01:41:18.623Z,99.90
2019-04-01T01:43:49.217Z,99.90
2019-04-01T01:46:19.615Z,99.90
2019-04-01T01:48:50.061Z,99.90
2019-04-01T01:51:20.472Z,99.90
2019-04-01T01:53:50.945Z,99.90
2019-04-01T01:56:21.426Z,99.90
2019-04-01T01:58:51.888Z,99.90
2019-04-01T02:01:22.188Z,99.90
2019-04-01T02:03:52.563Z,99.90
2019-04-01T02:06:22.951Z,99.90
2019-04-01T02:08:53.327Z,99.90
2019-04-01T02:11:23.764Z,99.90
2019-04-01T02:13:54.168Z,99.90
2019-04-01T02:16:24.671Z,99.90
2019-04-01T02:18:55.009Z,99.90
2019-04-01T02:21:25.351Z,99.90
2019-04-01T02:23:55.788Z,99.90
2019-04-01T02:26:26.227Z,99.90
2019-04-01T02:28:56.615Z,99.90
2019-04-01T02:31:27.064Z,99.90
2019-04-01T02:33:57.457Z,99.90
2019-04-01T02:36:27.848Z,99.90
2019-04-01T02:38:58.296Z,99.90
2019-04-01T02:41:28.778Z,99.90
2019-04-01T02:43:59.184Z,99.90
2019-04-01T02:46:29.654Z,99.90
2019-04-01T02:49:00.148Z,99.90
2019-04-01T02:51:30.545Z,99.90
2019-04-01T02:54:00.942Z,99.90
2019-04-01T02:56:31.425Z,99.90
2019-04-01T02:59:01.864Z,99.90
2019-04-01T03:01:32.333Z,99.90
2019-04-01T03:04:02.805Z,99.90
2019-04-01T03:06:33.202Z,99.90
2019-04-01T03:09:05.836Z,99.90
2019-04-01T03:11:36.312Z,99.90
2019-04-01T03:14:06.625Z,99.90
2019-04-01T03:16:37.031Z,99.90
2019-04-01T03:19:07.515Z,99.90
2019-04-01T03:21:37.806Z,99.90
2019-04-01T03:24:08.120Z,99.90
2019-04-01T03:26:38.518Z,99.90
2019-04-01T03:29:08.914Z,99.90
2019-04-01T03:31:39.242Z,99.90
2019-04-01T03:34:09.710Z,99.90
2019-04-01T03:36:40.160Z,99.90
2019-04-01T03:39:10.640Z,99.90
2019-04-01T03:41:41.069Z,99.90
2019-04-01T03:44:11.597Z,99.90
2019-04-01T03:46:42.088Z,99.90
2019-04-01T03:49:12.914Z,99.90
2019-04-01T03:51:43.425Z,99.90
2019-04-01T03:54:13.938Z,99.90
2019-04-01T03:56:44.294Z,99.90
2019-04-01T03:59:14.721Z,99.90
2019-04-01T04:01:45.169Z,99.90
2019-04-01T04:04:15.741Z,99.90
2019-04-01T04:06:46.195Z,99.90
2019-04-01T04:09:16.675Z,99.90
2019-04-01T04:11:47.016Z,99.90
2019-04-01T04:14:17.413Z,99.90
2019-04-01T04:16:47.796Z,99.90
2019-04-01T04:19:18.073Z,99.90
2019-04-01T04:21:48.644Z,99.90
2019-04-01T04:24:19.250Z,99.90
2019-04-01T04:26:49.624Z,99.90
2019-04-01T04:29:20.065Z,99.90
2019-04-01T04:31:50.476Z,99.90
2019-04-01T04:34:20.866Z,99.90
2019-04-01T04:36:51.346Z,99.90
2019-04-01T04:39:21.795Z,99.90
2019-04-01T04:41:52.138Z,99.90
2019-04-01T04:44:22.631Z,99.90
2019-04-01T04:46:53.010Z,99.90
2019-04-01T04:49:23.455Z,99.90
2019-04-01T04:51:53.960Z,99.90
2019-04-01T04:54:24.363Z,99.90
2019-04-01T04:56:54.712Z,99.90
2019-04-01T04:59:25.168Z,99.90
2019-04-01T05:01:55.493Z,99.90
2019-04-01T05:04:25.944Z,99.90
2019-04-01T05:06:56.515Z,99.90
2019-04-01T05:09:26.934Z,99.90
2019-04-01T05:11:57.424Z,99.90
2019-04-01T05:14:27.839Z,99.90
2019-04-01T05:16:58.321Z,99.90
2019-04-01T05:19:28.776Z,99.90
2019-04-01T05:22:00.917Z,99.90
2019-04-01T05:24:32.389Z,99.90
2019-04-01T05:27:05.126Z,99.90
2019-04-01T05:29:36.760Z,99.90
2019-04-01T05:32:07.282Z,99.90
2019-04-01T05:34:40.132Z,99.90
2019-04-01T05:37:10.556Z,99.90
2019-04-01T05:39:41.460Z,99.90
2019-04-01T05:42:11.920Z,99.90
2019-04-01T05:44:42.330Z,99.90
2019-04-01T05:47:12.847Z,99.90
2019-04-01T05:49:43.359Z,99.90
2019-04-01T05:52:13.810Z,99.90
2019-04-01T05:54:45.295Z,99.90
2019-04-01T05:57:16.336Z,99.90
2019-04-01T05:59:47.354Z,99.90
2019-04-01T06:02:17.820Z,99.90
2019-04-01T06:04:48.262Z,99.90
2019-04-01T06:07:19.055Z,99.90
2019-04-01T06:09:49.543Z,99.90
2019-04-01T06:12:19.924Z,99.90
2019-04-01T06:14:50.424Z,99.90
2019-04-01T06:17:20.820Z,99.90
2019-04-01T06:19:51.841Z,99.90
2019-04-01T06:22:22.258Z,99.90
2019-04-01T06:24:53.640Z,99.90
2019-04-01T06:27:24.715Z,99.90
2019-04-01T06:29:59.149Z,99.90
2019-04-01T06:32:28.347Z,99.90
2019-04-01T06:34:58.658Z,99.90
2019-04-01T06:37:29.040Z,99.90
2019-04-01T06:40:00.060Z,99.90
2019-04-01T06:42:30.479Z,99.90
2019-04-01T06:45:00.954Z,99.90
2019-04-01T06:47:31.406Z,99.90
2019-04-01T06:50:01.809Z,99.90
2019-04-01T06:52:32.168Z,99.90
2019-04-01T06:55:02.672Z,99.90
2019-04-01T06:57:33.105Z,99.90
2019-04-01T07:00:03.556Z,99.90
2019-04-01T07:02:34.313Z,99.90
2019-04-01T07:05:05.267Z,99.90
2019-04-01T07:07:35.748Z,99.90
2019-04-01T07:10:06.600Z,99.90
2019-04-01T07:12:37.006Z,99.90
2019-04-01T07:15:07.936Z,99.90
2019-04-01T07:17:38.344Z,99.90
2019-04-01T07:20:09.255Z,99.90
2019-04-01T07:22:39.654Z,99.90
2019-04-01T07:25:10.718Z,99.90
2019-04-01T07:27:41.489Z,99.90
2019-04-01T07:30:13.262Z,99.90
2019-04-01T07:32:43.804Z,99.90
2019-04-01T07:35:14.673Z,99.90
2019-04-01T07:37:44.977Z,99.90
2019-04-01T07:40:15.417Z,99.90
2019-04-01T07:42:46.015Z,99.90
2019-04-01T07:45:16.451Z,99.90
2019-04-01T07:47:46.932Z,99.90
2019-04-01T07:50:17.670Z,99.90
2019-04-01T07:52:48.195Z,99.90
2019-04-01T07:55:18.693Z,99.90
2019-04-01T07:57:49.060Z,99.90
2019-04-01T08:00:19.745Z,99.80
2019-04-01T08:02:50.272Z,99.90
2019-04-01T08:05:20.849Z,99.90
2019-04-01T08:07:51.512Z,98.90
2019-04-01T08:10:21.998Z,98.70
2019-04-01T08:12:52.521Z,97.20
2019-04-01T08:15:22.963Z,96.20
2019-04-01T08:17:53.470Z,94.80
2019-04-01T08:20:24.049Z,94.70
2019-04-01T08:22:54.513Z,96.50
2019-04-01T08:25:24.957Z,95.90
2019-04-01T08:27:55.407Z,94.80
2019-04-01T08:30:25.909Z,93.80
2019-04-01T08:32:56.399Z,92.60
2019-04-01T08:35:26.915Z,90.80
2019-04-01T08:37:57.483Z,89.40
2019-04-01T08:40:28.006Z,85.40
2019-04-01T08:42:58.368Z,87.50
2019-04-01T08:45:28.793Z,86.80
2019-04-01T08:47:59.185Z,88.00
2019-04-01T08:50:29.699Z,86.90
2019-04-01T08:53:00.171Z,85.80
2019-04-01T08:55:30.832Z,85.20
2019-04-01T08:58:01.288Z,86.60
2019-04-01T09:00:31.706Z,85.40
2019-04-01T09:03:02.116Z,82.00
2019-04-01T09:05:32.677Z,79.20
2019-04-01T09:08:03.178Z,80.00
2019-04-01T09:10:33.615Z,82.50
2019-04-01T09:13:04.554Z,84.50
2019-04-01T09:15:35.152Z,85.10
2019-04-01T09:18:05.579Z,77.20
2019-04-01T09:20:36.043Z,74.10
2019-04-01T09:23:06.477Z,71.60
2019-04-01T09:25:36.949Z,68.10
2019-04-01T09:28:07.324Z,66.70
2019-04-01T09:30:38.044Z,66.20
2019-04-01T09:33:08.473Z,66.70
2019-04-01T09:35:40.841Z,66.90
2019-04-01T09:38:11.087Z,68.80
2019-04-01T09:40:41.554Z,69.30
2019-04-01T09:43:14.112Z,69.80
2019-04-01T09:45:44.092Z,71.70
2019-04-01T09:48:14.532Z,70.70
2019-04-01T09:50:44.907Z,69.30
2019-04-01T09:53:15.445Z,66.80
2019-04-01T09:55:45.968Z,66.00
2019-04-01T09:58:16.506Z,67.70
2019-04-01T10:00:53.249Z,67.50
2019-04-01T10:03:22.817Z,65.20
2019-04-01T10:05:53.204Z,63.80
2019-04-01T10:08:23.652Z,64.30
2019-04-01T10:10:54.135Z,62.90
2019-04-01T10:13:24.602Z,62.70
2019-04-01T10:15:55.050Z,62.00
2019-04-01T10:18:25.518Z,59.50
2019-04-01T10:20:55.970Z,58.80
2019-04-01T10:23:26.291Z,58.30
2019-04-01T10:25:56.692Z,58.40
2019-04-01T10:28:27.114Z,58.60
2019-04-01T10:30:57.633Z,55.70
2019-04-01T10:33:28.111Z,54.90
2019-04-01T10:35:58.497Z,53.70
2019-04-01T10:38:28.947Z,56.60
2019-04-01T10:40:59.430Z,56.30
2019-04-01T10:43:29.801Z,53.40
2019-04-01T10:46:00.247Z,52.70
2019-04-01T10:48:30.883Z,54.00
2019-04-01T10:51:01.539Z,55.00
2019-04-01T10:53:32.049Z,56.70
2019-04-01T10:56:02.567Z,57.40
2019-04-01T10:58:32.995Z,57.80
2019-04-01T11:01:03.661Z,57.60
2019-04-01T11:03:34.102Z,56.10
2019-04-01T11:06:04.653Z,54.70
2019-04-01T11:08:35.272Z,54.70
2019-04-01T11:11:05.737Z,56.10
2019-04-01T11:13:36.158Z,56.00
2019-04-01T11:16:06.692Z,54.70
2019-04-01T11:18:37.113Z,52.00
2019-04-01T11:21:07.500Z,52.60
2019-04-01T11:23:38.034Z,52.60
2019-04-01T11:26:08.363Z,54.90
2019-04-01T11:28:38.773Z,53.50
2019-04-01T11:31:09.200Z,52.90
2019-04-01T11:33:39.751Z,50.90
2019-04-01T11:36:10.245Z,48.80
2019-04-01T11:38:40.670Z,47.70
2019-04-01T11:41:11.166Z,46.00
2019-04-01T11:43:41.499Z,46.60
2019-04-01T11:46:12.661Z,46.60
2019-04-01T11:48:43.445Z,47.90
2019-04-01T11:51:13.868Z,48.40
2019-04-01T11:53:44.347Z,48.40
2019-04-01T11:56:14.877Z,47.50
2019-04-01T11:58:45.340Z,48.10
2019-04-01T12:01:15.667Z,46.80
2019-04-01T12:03:46.162Z,47.40
2019-04-01T12:06:16.618Z,45.70
2019-04-01T12:08:47.160Z,47.20
2019-04-01T12:11:17.640Z,46.10
2019-04-01T12:13:48.023Z,45.60
2019-04-01T12:16:18.498Z,44.80
2019-04-01T12:18:48.870Z,45.30
2019-04-01T12:21:19.271Z,44.70
2019-04-01T12:23:49.773Z,44.10
2019-04-01T12:26:20.213Z,44.80
2019-04-01T12:28:50.597Z,46.20
2019-04-01T12:31:21.768Z,46.40
2019-04-01T12:33:52.624Z,47.60
2019-04-01T12:36:23.022Z,47.00
2019-04-01T12:38:53.934Z,46.40
2019-04-01T12:41:24.562Z,43.80
2019-04-01T12:43:54.986Z,43.90
2019-04-01T12:46:25.494Z,42.30
2019-04-01T12:48:55.890Z,41.50
2019-04-01T12:51:26.413Z,41.00
2019-04-01T12:53:56.885Z,42.60
2019-04-01T12:56:27.431Z,41.30
2019-04-01T12:58:57.944Z,41.00
2019-04-01T13:01:28.408Z,41.10
2019-04-01T13:03:58.766Z,43.30
2019-04-01T13:06:29.182Z,42.00
2019-04-01T13:08:59.576Z,42.10
2019-04-01T13:11:30.061Z,42.60
2019-04-01T13:14:00.477Z,43.10
2019-04-01T13:16:30.944Z,43.60
2019-04-01T13:19:01.460Z,43.50
2019-04-01T13:21:34.563Z,44.00
2019-04-01T13:24:04.964Z,45.90
2019-04-01T13:26:35.601Z,46.80
2019-04-01T13:29:06.111Z,46.20
2019-04-01T13:31:36.566Z,46.70
2019-04-01T13:34:07.042Z,47.90
2019-04-01T13:36:37.509Z,48.50
2019-04-01T13:39:08.977Z,49.20
2019-04-01T13:41:42.615Z,48.90
2019-04-01T13:44:11.630Z,49.30
2019-04-01T13:46:42.031Z,48.90
2019-04-01T13:49:12.542Z,50.40
2019-04-01T13:51:43.827Z,50.20
2019-04-01T13:54:14.508Z,50.20
2019-04-01T13:56:45.044Z,50.50
2019-04-01T13:59:17.496Z,50.30
2019-04-01T14:01:47.845Z,50.30
2019-04-01T14:04:18.199Z,50.90
2019-04-01T14:06:48.636Z,51.40
2019-04-01T14:09:20.758Z,52.00
2019-04-01T14:11:51.484Z,51.70
2019-04-01T14:14:21.900Z,52.30
2019-04-01T14:16:52.403Z,51.80
2019-04-01T14:19:22.809Z,52.30
2019-04-01T14:21:53.215Z,52.60
2019-04-01T14:24:23.663Z,52.30
2019-04-01T14:26:56.582Z,52.10
2019-04-01T14:29:26.429Z,51.30
2019-04-01T14:31:56.895Z,51.00
2019-04-01T14:34:27.365Z,51.10
2019-04-01T14:36:57.791Z,49.90
2019-04-01T14:39:28.301Z,49.40
2019-04-01T14:41:58.683Z,49.40
2019-04-01T14:44:29.166Z,49.10
2019-04-01T14:46:59.613Z,49.30
2019-04-01T14:49:30.059Z,48.50
2019-04-01T14:52:00.598Z,48.40
2019-04-01T14:54:31.026Z,49.00
2019-04-01T14:57:01.408Z,48.90
2019-04-01T14:59:31.677Z,48.60
2019-04-01T15:02:03.794Z,49.50
2019-04-01T15:04:34.474Z,51.10
2019-04-01T15:07:04.911Z,52.00
2019-04-01T15:09:35.316Z,53.00
2019-04-01T15:12:05.809Z,53.50
2019-04-01T15:14:36.248Z,53.50
2019-04-01T15:17:06.717Z,53.50
2019-04-01T15:19:37.199Z,53.80
2019-04-01T15:22:07.698Z,53.40
2019-04-01T15:24:38.255Z,53.50
2019-04-01T15:27:08.679Z,53.60
2019-04-01T15:29:39.093Z,53.90
2019-04-01T15:32:09.584Z,54.40
2019-04-01T15:34:40.014Z,54.70
2019-04-01T15:37:10.399Z,54.70
2019-04-01T15:39:40.819Z,54.90
2019-04-01T15:42:11.281Z,54.70
2019-04-01T15:44:41.835Z,54.80
2019-04-01T15:47:12.261Z,55.40
2019-04-01T15:49:42.608Z,55.60
2019-04-01T15:52:13.059Z,55.00
2019-04-01T15:54:43.675Z,55.30
2019-04-01T15:57:15.355Z,55.20
2019-04-01T15:59:45.926Z,55.40
2019-04-01T16:02:16.375Z,55.30
2019-04-01T16:04:46.935Z,54.90
2019-04-01T16:07:17.416Z,55.40
2019-04-01T16:09:47.829Z,55.30
2019-04-01T16:12:18.211Z,55.40
2019-04-01T16:14:48.837Z,55.90
2019-04-01T16:17:19.266Z,56.10
2019-04-01T16:19:49.726Z,55.80
2019-04-01T16:22:20.164Z,55.80
2019-04-01T16:24:50.665Z,56.10
2019-04-01T16:27:21.270Z,55.70
2019-04-01T16:29:51.786Z,56.00
2019-04-01T16:32:22.264Z,56.30
2019-04-01T16:34:52.706Z,56.20
2019-04-01T16:37:23.109Z,55.90
2019-04-01T16:39:54.662Z,56.10
2019-04-01T16:42:25.380Z,56.30
2019-04-01T16:44:55.944Z,56.20
2019-04-01T16:47:26.432Z,56.40
2019-04-01T16:49:56.933Z,56.00
2019-04-01T16:52:27.412Z,56.00
2019-04-01T16:55:01.904Z,56.80
2019-04-01T16:57:32.387Z,56.50
2019-04-01T17:00:02.872Z,56.60
2019-04-01T17:02:33.399Z,57.40
2019-04-01T17:05:04.054Z,57.00
2019-04-01T17:07:34.581Z,57.00
2019-04-01T17:10:05.510Z,57.40
2019-04-01T17:12:36.093Z,57.40
2019-04-01T17:15:07.062Z,57.90
2019-04-01T17:17:37.959Z,57.90
2019-04-01T17:20:08.485Z,57.80
2019-04-01T17:22:39.038Z,57.90
2019-04-01T17:25:09.728Z,58.20
2019-04-01T17:27:40.277Z,59.10
2019-04-01T17:30:13.347Z,58.70
2019-04-01T17:32:43.889Z,58.80
2019-04-01T17:35:14.521Z,59.20
2019-04-01T17:37:45.076Z,59.60
2019-04-01T17:40:17.250Z,59.80
2019-04-01T17:42:47.979Z,60.60
2019-04-01T17:45:49.984Z,59.80
2019-04-01T17:48:20.459Z,59.80
2019-04-01T17:50:50.870Z,60.60
2019-04-01T17:53:21.352Z,60.60
2019-04-01T17:55:52.703Z,61.40
2019-04-01T17:58:23.074Z,61.80
2019-04-01T18:00:56.614Z,62.30
2019-04-01T18:03:27.523Z,62.50
2019-04-01T18:05:58.150Z,62.90
2019-04-01T18:08:28.680Z,63.30
2019-04-01T18:10:59.044Z,63.80
2019-04-01T18:13:29.478Z,64.10
2019-04-01T18:15:59.936Z,64.60
2019-04-01T18:18:33.818Z,65.40
2019-04-01T18:21:03.394Z,66.70
2019-04-01T18:23:34.215Z,67.70
2019-04-01T18:26:04.824Z,68.10
2019-04-01T18:28:35.247Z,68.50
2019-04-01T18:31:08.046Z,69.00
2019-04-01T18:33:39.828Z,68.70
2019-04-01T18:36:10.265Z,68.30
2019-04-01T18:38:41.195Z,68.30
2019-04-01T18:41:11.600Z,68.30
2019-04-01T18:43:42.204Z,68.30
2019-04-01T18:46:13.042Z,68.30
2019-04-01T18:48:43.601Z,68.20
2019-04-01T18:51:14.183Z,68.30
2019-04-01T18:53:44.631Z,68.30
2019-04-01T18:56:15.150Z,68.60
2019-04-01T18:58:45.754Z,67.80
2019-04-01T19:01:16.365Z,68.10
2019-04-01T19:03:46.960Z,68.50
2019-04-01T19:06:17.490Z,68.60
2019-04-01T19:08:47.930Z,69.00
2019-04-01T19:11:18.392Z,70.10
2019-04-01T19:13:48.958Z,70.30
2019-04-01T19:16:22.855Z,70.30
2019-04-01T19:18:51.628Z,70.30
2019-04-01T19:21:22.154Z,70.10
2019-04-01T19:23:52.651Z,70.40
2019-04-01T19:26:23.423Z,70.80
2019-04-01T19:28:57.991Z,70.30
2019-04-01T19:31:27.009Z,70.50
2019-04-01T19:33:57.438Z,70.80
2019-04-01T19:36:27.989Z,71.20
2019-04-01T19:38:58.387Z,71.60
2019-04-01T19:41:29.042Z,71.70
2019-04-01T19:43:59.583Z,72.10
2019-04-01T19:46:30.117Z,73.00
2019-04-01T19:49:04.752Z,72.80
2019-04-01T19:51:35.842Z,73.30
2019-04-01T19:54:05.101Z,73.40
2019-04-01T19:56:35.638Z,73.40
2019-04-01T19:59:06.173Z,73.60
2019-04-01T20:01:36.753Z,73.70
2019-04-01T20:04:07.306Z,73.70
2019-04-01T20:06:40.641Z,74.00
2019-04-01T20:09:10.285Z,73.80
2019-04-01T20:11:40.762Z,74.30
2019-04-01T20:14:11.641Z,74.50
2019-04-01T20:16:42.215Z,74.30
2019-04-01T20:19:12.652Z,75.00
2019-04-01T20:21:43.062Z,75.40
2019-04-01T20:24:13.514Z,76.10
2019-04-01T20:26:47.008Z,75.80
2019-04-01T20:29:17.531Z,75.90
2019-04-01T20:31:48.027Z,75.60
2019-04-01T20:34:19.880Z,75.50
2019-04-01T20:36:50.881Z,75.60
2019-04-01T20:39:22.287Z,75.90
2019-04-01T20:41:52.874Z,75.80
2019-04-01T20:44:23.297Z,76.20
2019-04-01T20:46:53.734Z,76.10
2019-04-01T20:49:24.210Z,76.80
2019-04-01T20:51:55.346Z,77.50
2019-04-01T20:54:25.667Z,77.00
2019-04-01T20:56:56.252Z,77.30
2019-04-01T20:59:26.658Z,77.40
2019-04-01T21:01:57.227Z,77.70
2019-04-01T21:04:27.691Z,78.30
2019-04-01T21:06:58.136Z,78.50
2019-04-01T21:09:28.572Z,79.00
2019-04-01T21:11:59.058Z,78.90
2019-04-01T21:14:29.562Z,78.80
2019-04-01T21:17:00.534Z,79.10
2019-04-01T21:19:31.148Z,78.90
2019-04-01T21:22:01.576Z,79.80
2019-04-01T21:24:32.002Z,80.10
2019-04-01T21:27:02.319Z,80.30
2019-04-01T21:29:32.860Z,82.20
2019-04-01T21:32:03.326Z,82.80
2019-04-01T21:34:33.732Z,82.60
2019-04-01T21:37:06.124Z,83.10
2019-04-01T21:39:37.805Z,83.50
2019-04-01T21:42:08.593Z,83.90
2019-04-01T21:44:39.083Z,84.00
2019-04-01T21:47:09.584Z,84.40
2019-04-01T21:49:40.036Z,83.50
2019-04-01T21:52:10.407Z,84.20
2019-04-01T21:54:40.875Z,83.50
2019-04-01T21:57:11.346Z,83.70
2019-04-01T21:59:41.892Z,84.30
2019-04-01T22:02:12.400Z,84.50
2019-04-01T22:04:42.845Z,85.50
2019-04-01T22:07:13.319Z,86.00
2019-04-01T22:09:43.760Z,86.90
2019-04-01T22:12:14.381Z,87.90
2019-04-01T22:14:44.942Z,88.00
2019-04-01T22:17:16.159Z,88.00
2019-04-01T22:19:47.553Z,88.20
2019-04-01T22:22:18.242Z,88.90
2019-04-01T22:24:48.890Z,89.00
2019-04-01T22:27:19.559Z,89.20
2019-04-01T22:29:49.948Z,89.30
2019-04-01T22:32:20.514Z,90.30
2019-04-01T22:34:51.050Z,90.20
2019-04-01T22:37:27.218Z,90.50
2019-04-01T22:39:53.924Z,90.80
2019-04-01T22:42:24.538Z,91.20
2019-04-01T22:44:55.112Z,91.50
2019-04-01T22:47:25.751Z,91.60
2019-04-01T22:49:56.463Z,91.70
2019-04-01T22:52:26.789Z,91.90
2019-04-01T22:54:58.255Z,92.40
2019-04-01T22:57:29.733Z,92.50
2019-04-01T23:00:00.160Z,92.70
2019-04-01T23:02:30.656Z,93.00
2019-04-01T23:05:01.126Z,93.20
2019-04-01T23:07:33.027Z,93.40
2019-04-01T23:10:04.048Z,94.10
2019-04-01T23:12:34.573Z,94.00
2019-04-01T23:15:05.798Z,94.50
2019-04-01T23:17:38.274Z,95.10
2019-04-01T23:20:09.642Z,95.00
2019-04-01T23:22:40.219Z,95.60
2019-04-01T23:25:10.734Z,96.00
2019-04-01T23:27:41.363Z,96.20
2019-04-01T23:30:13.509Z,97.00
2019-04-01T23:32:45.288Z,97.00
2019-04-01T23:35:15.941Z,97.10
2019-04-01T23:37:46.542Z,98.10
2019-04-01T23:40:17.325Z,98.50
2019-04-01T23:42:47.830Z,98.70
2019-04-01T23:45:18.356Z,99.20
2019-04-01T23:47:48.926Z,99.60
2019-04-01T23:50:19.670Z,99.90
2019-04-01T23:52:50.234Z,99.90
2019-04-01T23:55:20.753Z,99.90
2019-04-01T23:57:51.257Z,99.90
